Terminal Aerodrome Forecast
Issued by NWS

Home | Current Version | Previous Version | Text Only | Print | Product List | Glossary On
Versions: 1 2 3 4 5 6 7 8 9 10 11 12
532
FTUS43 KGRR 261121
TAFBTL
TAF
KBTL 261121Z 2612/2712 14004KT P6SM FEW250
     FM261400 22006KT P6SM SCT250
     FM270400 25003KT P6SM OVC070
     FM270600 28004KT 6SM BR OVC050
     FM271000 31006KT P6SM OVC025=

USA.gov is the U.S. government's official web portal to all federal, state and local government web resources and services.